sensor_id;sensor_type;location;lat;lon;timestamp;P1;durP1;ratioP1;P2;durP2;ratioP2
5393;SDS011;2720;52.396;10.064;2023-05-17T00:01:47;8.77;;;3.23;;
5393;SDS011;2720;52.396;10.064;2023-05-17T00:04:14;6.77;;;2.20;;
5393;SDS011;2720;52.396;10.064;2023-05-17T00:06:41;9.63;;;2.10;;
5393;SDS011;2720;52.396;10.064;2023-05-17T00:09:08;10.87;;;2.80;;
5393;SDS011;2720;52.396;10.064;2023-05-17T00:11:35;8.40;;;2.23;;
5393;SDS011;2720;52.396;10.064;2023-05-17T00:14:04;9.73;;;2.93;;
5393;SDS011;2720;52.396;10.064;2023-05-17T00:16:31;8.07;;;2.63;;
5393;SDS011;2720;52.396;10.064;2023-05-17T00:18:58;12.60;;;2.60;;
5393;SDS011;2720;52.396;10.064;2023-05-17T00:21:24;10.67;;;2.87;;
5393;SDS011;2720;52.396;10.064;2023-05-17T00:23:51;23.93;;;3.13;;
5393;SDS011;2720;52.396;10.064;2023-05-17T00:26:18;11.83;;;3.67;;
5393;SDS011;2720;52.396;10.064;2023-05-17T00:28:45;15.73;;;3.47;;
5393;SDS011;2720;52.396;10.064;2023-05-17T00:31:14;6.33;;;2.53;;
5393;SDS011;2720;52.396;10.064;2023-05-17T00:33:40;13.73;;;2.77;;
5393;SDS011;2720;52.396;10.064;2023-05-17T00:36:07;13.27;;;3.70;;
5393;SDS011;2720;52.396;10.064;2023-05-17T00:38:35;14.00;;;2.67;;
5393;SDS011;2720;52.396;10.064;2023-05-17T00:41:02;16.00;;;3.03;;
5393;SDS011;2720;52.396;10.064;2023-05-17T00:43:28;7.80;;;2.70;;
5393;SDS011;2720;52.396;10.064;2023-05-17T00:45:56;8.77;;;2.60;;
5393;SDS011;2720;52.396;10.064;2023-05-17T00:48:24;13.80;;;2.80;;
5393;SDS011;2720;52.396;10.064;2023-05-17T00:50:52;11.00;;;2.90;;
5393;SDS011;2720;52.396;10.064;2023-05-17T00:53:19;14.30;;;3.70;;
5393;SDS011;2720;52.396;10.064;2023-05-17T00:55:46;17.60;;;3.13;;
5393;SDS011;2720;52.396;10.064;2023-05-17T00:58:13;14.73;;;3.30;;
5393;SDS011;2720;52.396;10.064;2023-05-17T01:00:41;8.43;;;2.83;;
5393;SDS011;2720;52.396;10.064;2023-05-17T01:03:08;6.70;;;2.70;;
5393;SDS011;2720;52.396;10.064;2023-05-17T01:05:37;10.30;;;3.20;;
5393;SDS011;2720;52.396;10.064;2023-05-17T01:08:04;5.97;;;3.00;;
5393;SDS011;2720;52.396;10.064;2023-05-17T01:10:34;14.10;;;3.60;;
5393;SDS011;2720;52.396;10.064;2023-05-17T01:13:05;6.50;;;3.33;;
5393;SDS011;2720;52.396;10.064;2023-05-17T01:15:36;15.83;;;3.87;;
5393;SDS011;2720;52.396;10.064;2023-05-17T01:18:08;11.00;;;2.87;;
5393;SDS011;2720;52.396;10.064;2023-05-17T01:20:59;10.93;;;2.60;;
5393;SDS011;2720;52.396;10.064;2023-05-17T01:23:34;9.60;;;3.40;;
5393;SDS011;2720;52.396;10.064;2023-05-17T01:26:13;14.03;;;3.50;;
5393;SDS011;2720;52.396;10.064;2023-05-17T01:28:44;12.60;;;3.93;;
5393;SDS011;2720;52.396;10.064;2023-05-17T01:31:12;13.10;;;3.70;;
5393;SDS011;2720;52.396;10.064;2023-05-17T01:33:40;10.63;;;4.00;;
5393;SDS011;2720;52.396;10.064;2023-05-17T01:36:07;11.60;;;3.33;;
5393;SDS011;2720;52.396;10.064;2023-05-17T01:38:34;9.70;;;3.23;;
5393;SDS011;2720;52.396;10.064;2023-05-17T01:41:04;5.87;;;3.57;;
5393;SDS011;2720;52.396;10.064;2023-05-17T01:43:36;13.23;;;4.47;;
5393;SDS011;2720;52.396;10.064;2023-05-17T01:46:12;12.53;;;3.90;;
5393;SDS011;2720;52.396;10.064;2023-05-17T01:48:48;20.43;;;3.57;;
5393;SDS011;2720;52.396;10.064;2023-05-17T01:51:22;9.77;;;3.47;;
5393;SDS011;2720;52.396;10.064;2023-05-17T01:53:54;12.33;;;4.10;;
5393;SDS011;2720;52.396;10.064;2023-05-17T01:56:26;15.57;;;4.57;;
5393;SDS011;2720;52.396;10.064;2023-05-17T01:58:55;9.23;;;3.03;;
5393;SDS011;2720;52.396;10.064;2023-05-17T02:01:24;22.53;;;4.40;;
5393;SDS011;2720;52.396;10.064;2023-05-17T02:03:53;20.97;;;4.50;;
5393;SDS011;2720;52.396;10.064;2023-05-17T02:06:20;22.57;;;4.00;;
5393;SDS011;2720;52.396;10.064;2023-05-17T02:08:47;16.57;;;5.07;;
5393;SDS011;2720;52.396;10.064;2023-05-17T02:11:14;13.93;;;4.03;;
5393;SDS011;2720;52.396;10.064;2023-05-17T02:13:40;13.23;;;4.07;;
5393;SDS011;2720;52.396;10.064;2023-05-17T02:16:07;25.03;;;4.10;;
5393;SDS011;2720;52.396;10.064;2023-05-17T02:18:36;30.43;;;5.53;;
5393;SDS011;2720;52.396;10.064;2023-05-17T02:21:04;20.73;;;4.87;;
5393;SDS011;2720;52.396;10.064;2023-05-17T02:23:31;23.90;;;4.90;;
5393;SDS011;2720;52.396;10.064;2023-05-17T02:25:58;13.97;;;5.70;;
5393;SDS011;2720;52.396;10.064;2023-05-17T02:28:25;23.40;;;5.90;;
5393;SDS011;2720;52.396;10.064;2023-05-17T02:30:52;15.80;;;4.33;;
5393;SDS011;2720;52.396;10.064;2023-05-17T02:33:20;13.37;;;5.53;;
5393;SDS011;2720;52.396;10.064;2023-05-17T02:35:49;20.53;;;5.43;;
5393;SDS011;2720;52.396;10.064;2023-05-17T02:38:16;13.50;;;5.40;;
5393;SDS011;2720;52.396;10.064;2023-05-17T02:40:42;22.60;;;4.80;;
5393;SDS011;2720;52.396;10.064;2023-05-17T02:43:09;14.83;;;4.37;;
5393;SDS011;2720;52.396;10.064;2023-05-17T02:45:36;16.90;;;5.17;;
5393;SDS011;2720;52.396;10.064;2023-05-17T02:48:03;28.77;;;5.20;;
5393;SDS011;2720;52.396;10.064;2023-05-17T02:50:31;22.53;;;5.30;;
5393;SDS011;2720;52.396;10.064;2023-05-17T02:52:59;15.27;;;4.47;;
5393;SDS011;2720;52.396;10.064;2023-05-17T02:55:26;26.40;;;4.53;;
5393;SDS011;2720;52.396;10.064;2023-05-17T02:57:53;16.73;;;4.60;;
5393;SDS011;2720;52.396;10.064;2023-05-17T03:00:20;12.80;;;4.67;;
5393;SDS011;2720;52.396;10.064;2023-05-17T03:02:47;14.10;;;4.20;;
5393;SDS011;2720;52.396;10.064;2023-05-17T03:05:14;15.33;;;4.13;;
5393;SDS011;2720;52.396;10.064;2023-05-17T03:07:41;14.20;;;5.40;;
5393;SDS011;2720;52.396;10.064;2023-05-17T03:10:09;17.53;;;4.93;;
5393;SDS011;2720;52.396;10.064;2023-05-17T03:12:36;22.73;;;5.17;;
5393;SDS011;2720;52.396;10.064;2023-05-17T03:15:03;16.70;;;4.70;;
5393;SDS011;2720;52.396;10.064;2023-05-17T03:17:31;16.60;;;4.67;;
5393;SDS011;2720;52.396;10.064;2023-05-17T03:19:58;16.47;;;4.70;;
5393;SDS011;2720;52.396;10.064;2023-05-17T03:22:25;24.50;;;5.00;;
5393;SDS011;2720;52.396;10.064;2023-05-17T03:24:52;21.00;;;6.20;;
5393;SDS011;2720;52.396;10.064;2023-05-17T03:27:20;19.13;;;5.60;;
5393;SDS011;2720;52.396;10.064;2023-05-17T03:29:47;19.10;;;5.93;;
5393;SDS011;2720;52.396;10.064;2023-05-17T03:32:14;10.80;;;4.13;;
5393;SDS011;2720;52.396;10.064;2023-05-17T03:34:41;17.23;;;5.47;;
5393;SDS011;2720;52.396;10.064;2023-05-17T03:37:08;16.80;;;4.97;;
5393;SDS011;2720;52.396;10.064;2023-05-17T03:39:35;12.67;;;4.60;;
5393;SDS011;2720;52.396;10.064;2023-05-17T03:42:02;14.70;;;4.90;;
5393;SDS011;2720;52.396;10.064;2023-05-17T03:44:30;30.80;;;5.70;;
5393;SDS011;2720;52.396;10.064;2023-05-17T03:46:57;18.20;;;4.37;;
5393;SDS011;2720;52.396;10.064;2023-05-17T03:49:24;28.30;;;4.97;;
5393;SDS011;2720;52.396;10.064;2023-05-17T03:51:51;13.80;;;5.13;;
5393;SDS011;2720;52.396;10.064;2023-05-17T03:54:18;24.67;;;5.00;;
5393;SDS011;2720;52.396;10.064;2023-05-17T03:56:45;25.23;;;5.17;;
5393;SDS011;2720;52.396;10.064;2023-05-17T03:59:14;22.00;;;5.27;;
5393;SDS011;2720;52.396;10.064;2023-05-17T04:01:43;26.27;;;5.97;;
5393;SDS011;2720;52.396;10.064;2023-05-17T04:04:10;8.97;;;4.37;;
5393;SDS011;2720;52.396;10.064;2023-05-17T04:06:37;13.03;;;4.67;;
5393;SDS011;2720;52.396;10.064;2023-05-17T04:09:05;14.63;;;4.73;;
5393;SDS011;2720;52.396;10.064;2023-05-17T04:11:33;15.10;;;5.10;;
5393;SDS011;2720;52.396;10.064;2023-05-17T04:14:02;18.00;;;5.83;;
5393;SDS011;2720;52.396;10.064;2023-05-17T04:16:30;16.67;;;4.90;;
5393;SDS011;2720;52.396;10.064;2023-05-17T04:18:59;23.80;;;5.87;;
5393;SDS011;2720;52.396;10.064;2023-05-17T04:21:26;17.23;;;4.70;;
5393;SDS011;2720;52.396;10.064;2023-05-17T04:23:53;12.40;;;4.10;;
5393;SDS011;2720;52.396;10.064;2023-05-17T04:26:20;18.70;;;7.07;;
5393;SDS011;2720;52.396;10.064;2023-05-17T04:28:47;20.13;;;4.97;;
5393;SDS011;2720;52.396;10.064;2023-05-17T04:31:14;19.90;;;4.27;;
5393;SDS011;2720;52.396;10.064;2023-05-17T04:33:42;23.73;;;4.20;;
5393;SDS011;2720;52.396;10.064;2023-05-17T04:36:10;20.87;;;4.10;;
5393;SDS011;2720;52.396;10.064;2023-05-17T04:38:37;16.07;;;3.70;;
5393;SDS011;2720;52.396;10.064;2023-05-17T04:41:05;14.50;;;3.87;;
5393;SDS011;2720;52.396;10.064;2023-05-17T04:43:33;18.43;;;3.40;;
5393;SDS011;2720;52.396;10.064;2023-05-17T04:46:00;12.83;;;3.73;;
5393;SDS011;2720;52.396;10.064;2023-05-17T04:48:30;18.23;;;3.50;;
5393;SDS011;2720;52.396;10.064;2023-05-17T04:50:59;18.20;;;3.60;;
5393;SDS011;2720;52.396;10.064;2023-05-17T04:53:27;21.93;;;3.30;;
5393;SDS011;2720;52.396;10.064;2023-05-17T04:55:54;33.50;;;3.40;;
5393;SDS011;2720;52.396;10.064;2023-05-17T04:58:21;37.30;;;3.63;;
5393;SDS011;2720;52.396;10.064;2023-05-17T05:00:49;14.50;;;3.30;;
5393;SDS011;2720;52.396;10.064;2023-05-17T05:03:16;28.77;;;5.30;;
5393;SDS011;2720;52.396;10.064;2023-05-17T05:05:43;18.33;;;2.90;;
5393;SDS011;2720;52.396;10.064;2023-05-17T05:08:10;46.67;;;4.40;;
5393;SDS011;2720;52.396;10.064;2023-05-17T05:10:38;17.07;;;3.53;;
5393;SDS011;2720;52.396;10.064;2023-05-17T05:13:05;16.23;;;3.00;;
5393;SDS011;2720;52.396;10.064;2023-05-17T05:15:32;23.63;;;3.17;;
5393;SDS011;2720;52.396;10.064;2023-05-17T05:17:59;10.27;;;3.70;;
5393;SDS011;2720;52.396;10.064;2023-05-17T05:20:26;8.70;;;3.00;;
5393;SDS011;2720;52.396;10.064;2023-05-17T05:22:53;22.60;;;3.83;;
5393;SDS011;2720;52.396;10.064;2023-05-17T05:25:22;20.47;;;4.13;;
5393;SDS011;2720;52.396;10.064;2023-05-17T05:27:50;19.60;;;3.30;;
5393;SDS011;2720;52.396;10.064;2023-05-17T05:30:17;24.17;;;3.50;;
5393;SDS011;2720;52.396;10.064;2023-05-17T05:32:47;20.07;;;3.10;;
5393;SDS011;2720;52.396;10.064;2023-05-17T05:35:14;18.53;;;3.57;;
5393;SDS011;2720;52.396;10.064;2023-05-17T05:37:41;22.00;;;3.07;;
5393;SDS011;2720;52.396;10.064;2023-05-17T05:40:09;13.07;;;2.90;;
5393;SDS011;2720;52.396;10.064;2023-05-17T05:42:37;20.40;;;3.70;;
5393;SDS011;2720;52.396;10.064;2023-05-17T05:45:06;15.60;;;2.67;;
5393;SDS011;2720;52.396;10.064;2023-05-17T05:47:33;8.43;;;2.00;;
5393;SDS011;2720;52.396;10.064;2023-05-17T05:50:00;14.50;;;2.70;;
5393;SDS011;2720;52.396;10.064;2023-05-17T05:52:27;24.33;;;3.50;;
5393;SDS011;2720;52.396;10.064;2023-05-17T05:54:54;19.60;;;3.00;;
5393;SDS011;2720;52.396;10.064;2023-05-17T05:57:21;18.43;;;2.93;;
5393;SDS011;2720;52.396;10.064;2023-05-17T05:59:48;32.60;;;3.53;;
5393;SDS011;2720;52.396;10.064;2023-05-17T06:02:16;16.67;;;2.50;;
5393;SDS011;2720;52.396;10.064;2023-05-17T06:04:45;15.03;;;3.37;;
5393;SDS011;2720;52.396;10.064;2023-05-17T06:07:12;11.37;;;2.10;;
5393;SDS011;2720;52.396;10.064;2023-05-17T06:09:39;12.60;;;2.10;;
5393;SDS011;2720;52.396;10.064;2023-05-17T06:12:06;18.00;;;2.50;;
5393;SDS011;2720;52.396;10.064;2023-05-17T06:14:34;22.13;;;2.47;;
5393;SDS011;2720;52.396;10.064;2023-05-17T06:17:01;23.07;;;4.93;;
5393;SDS011;2720;52.396;10.064;2023-05-17T06:19:30;17.60;;;2.13;;
5393;SDS011;2720;52.396;10.064;2023-05-17T06:21:57;18.77;;;3.10;;
5393;SDS011;2720;52.396;10.064;2023-05-17T06:24:23;9.70;;;2.50;;
5393;SDS011;2720;52.396;10.064;2023-05-17T06:26:50;8.33;;;1.80;;
5393;SDS011;2720;52.396;10.064;2023-05-17T06:29:17;10.17;;;2.20;;
5393;SDS011;2720;52.396;10.064;2023-05-17T06:31:44;18.07;;;2.30;;
5393;SDS011;2720;52.396;10.064;2023-05-17T06:34:11;9.57;;;1.40;;
5393;SDS011;2720;52.396;10.064;2023-05-17T06:36:40;20.73;;;2.60;;
5393;SDS011;2720;52.396;10.064;2023-05-17T06:39:06;9.07;;;1.67;;
5393;SDS011;2720;52.396;10.064;2023-05-17T06:41:33;8.00;;;2.20;;
5393;SDS011;2720;52.396;10.064;2023-05-17T06:44:00;15.27;;;2.37;;
5393;SDS011;2720;52.396;10.064;2023-05-17T06:46:27;13.87;;;3.90;;
5393;SDS011;2720;52.396;10.064;2023-05-17T06:48:54;24.60;;;1.53;;
5393;SDS011;2720;52.396;10.064;2023-05-17T06:51:21;24.60;;;3.13;;
5393;SDS011;2720;52.396;10.064;2023-05-17T06:53:50;8.73;;;1.60;;
5393;SDS011;2720;52.396;10.064;2023-05-17T06:56:17;9.43;;;1.47;;
5393;SDS011;2720;52.396;10.064;2023-05-17T06:58:44;9.70;;;1.37;;
5393;SDS011;2720;52.396;10.064;2023-05-17T07:01:11;18.63;;;2.10;;
5393;SDS011;2720;52.396;10.064;2023-05-17T07:03:38;6.20;;;1.23;;
5393;SDS011;2720;52.396;10.064;2023-05-17T07:06:05;7.30;;;1.20;;
5393;SDS011;2720;52.396;10.064;2023-05-17T07:08:32;13.43;;;1.30;;
5393;SDS011;2720;52.396;10.064;2023-05-17T07:11:00;19.53;;;1.90;;
5393;SDS011;2720;52.396;10.064;2023-05-17T07:13:28;7.77;;;1.90;;
5393;SDS011;2720;52.396;10.064;2023-05-17T07:15:56;17.10;;;1.97;;
5393;SDS011;2720;52.396;10.064;2023-05-17T07:18:24;17.67;;;2.60;;
5393;SDS011;2720;52.396;10.064;2023-05-17T07:20:51;13.77;;;1.80;;
5393;SDS011;2720;52.396;10.064;2023-05-17T07:23:18;13.90;;;1.83;;
5393;SDS011;2720;52.396;10.064;2023-05-17T07:25:45;7.03;;;1.00;;
5393;SDS011;2720;52.396;10.064;2023-05-17T07:28:13;24.03;;;2.50;;
5393;SDS011;2720;52.396;10.064;2023-05-17T07:30:40;11.27;;;2.50;;
5393;SDS011;2720;52.396;10.064;2023-05-17T07:33:07;17.87;;;1.73;;
5393;SDS011;2720;52.396;10.064;2023-05-17T07:35:34;10.63;;;1.67;;
5393;SDS011;2720;52.396;10.064;2023-05-17T07:38:01;11.57;;;1.93;;
5393;SDS011;2720;52.396;10.064;2023-05-17T07:40:28;9.20;;;2.60;;
5393;SDS011;2720;52.396;10.064;2023-05-17T07:42:55;8.33;;;1.80;;
5393;SDS011;2720;52.396;10.064;2023-05-17T07:45:23;14.20;;;2.30;;
5393;SDS011;2720;52.396;10.064;2023-05-17T07:47:50;13.87;;;3.10;;
5393;SDS011;2720;52.396;10.064;2023-05-17T07:50:17;17.93;;;2.50;;
5393;SDS011;2720;52.396;10.064;2023-05-17T07:52:44;10.63;;;2.27;;
5393;SDS011;2720;52.396;10.064;2023-05-17T07:55:12;9.33;;;2.33;;
5393;SDS011;2720;52.396;10.064;2023-05-17T07:57:39;11.80;;;1.80;;
5393;SDS011;2720;52.396;10.064;2023-05-17T08:00:06;12.33;;;1.47;;
5393;SDS011;2720;52.396;10.064;2023-05-17T08:02:37;9.60;;;1.40;;
5393;SDS011;2720;52.396;10.064;2023-05-17T08:05:05;8.27;;;2.00;;
5393;SDS011;2720;52.396;10.064;2023-05-17T08:07:32;34.43;;;3.43;;
5393;SDS011;2720;52.396;10.064;2023-05-17T08:09:59;15.03;;;3.03;;
5393;SDS011;2720;52.396;10.064;2023-05-17T08:12:26;8.50;;;1.60;;
5393;SDS011;2720;52.396;10.064;2023-05-17T08:14:53;8.10;;;1.17;;
5393;SDS011;2720;52.396;10.064;2023-05-17T08:17:20;7.70;;;1.53;;
5393;SDS011;2720;52.396;10.064;2023-05-17T08:19:48;10.93;;;2.10;;
5393;SDS011;2720;52.396;10.064;2023-05-17T08:22:15;14.77;;;1.60;;
5393;SDS011;2720;52.396;10.064;2023-05-17T08:24:42;10.27;;;1.77;;
5393;SDS011;2720;52.396;10.064;2023-05-17T08:27:10;10.17;;;2.00;;
5393;SDS011;2720;52.396;10.064;2023-05-17T08:29:36;16.33;;;1.97;;
5393;SDS011;2720;52.396;10.064;2023-05-17T08:32:04;16.57;;;2.00;;
5393;SDS011;2720;52.396;10.064;2023-05-17T08:34:31;9.43;;;2.27;;
5393;SDS011;2720;52.396;10.064;2023-05-17T08:36:59;7.27;;;1.70;;
5393;SDS011;2720;52.396;10.064;2023-05-17T08:39:27;6.47;;;1.40;;
5393;SDS011;2720;52.396;10.064;2023-05-17T08:41:53;11.17;;;1.90;;
5393;SDS011;2720;52.396;10.064;2023-05-17T08:44:23;17.27;;;2.30;;
5393;SDS011;2720;52.396;10.064;2023-05-17T08:46:51;11.90;;;1.97;;
5393;SDS011;2720;52.396;10.064;2023-05-17T08:49:23;14.23;;;2.37;;
5393;SDS011;2720;52.396;10.064;2023-05-17T08:51:53;15.23;;;1.87;;
5393;SDS011;2720;52.396;10.064;2023-05-17T08:54:22;11.03;;;2.27;;
5393;SDS011;2720;52.396;10.064;2023-05-17T08:56:49;13.47;;;2.10;;
5393;SDS011;2720;52.396;10.064;2023-05-17T08:59:19;12.73;;;6.10;;
5393;SDS011;2720;52.396;10.064;2023-05-17T09:01:47;8.00;;;1.67;;
5393;SDS011;2720;52.396;10.064;2023-05-17T09:04:16;13.30;;;1.87;;
5393;SDS011;2720;52.396;10.064;2023-05-17T09:06:44;9.53;;;2.10;;
5393;SDS011;2720;52.396;10.064;2023-05-17T09:09:11;14.90;;;2.07;;
5393;SDS011;2720;52.396;10.064;2023-05-17T09:11:40;13.90;;;3.23;;
5393;SDS011;2720;52.396;10.064;2023-05-17T09:14:07;22.33;;;2.77;;
5393;SDS011;2720;52.396;10.064;2023-05-17T09:16:34;9.57;;;1.80;;
5393;SDS011;2720;52.396;10.064;2023-05-17T09:19:02;9.60;;;1.50;;
5393;SDS011;2720;52.396;10.064;2023-05-17T09:21:30;11.87;;;1.87;;
5393;SDS011;2720;52.396;10.064;2023-05-17T09:23:58;12.87;;;2.83;;
5393;SDS011;2720;52.396;10.064;2023-05-17T09:26:30;14.03;;;1.90;;
5393;SDS011;2720;52.396;10.064;2023-05-17T09:29:07;9.07;;;1.70;;
5393;SDS011;2720;52.396;10.064;2023-05-17T09:31:35;16.73;;;2.17;;
5393;SDS011;2720;52.396;10.064;2023-05-17T09:34:02;17.83;;;1.90;;
5393;SDS011;2720;52.396;10.064;2023-05-17T09:36:31;21.53;;;2.70;;
5393;SDS011;2720;52.396;10.064;2023-05-17T09:38:59;14.93;;;2.03;;
5393;SDS011;2720;52.396;10.064;2023-05-17T09:41:29;12.03;;;2.10;;
5393;SDS011;2720;52.396;10.064;2023-05-17T09:43:58;14.37;;;1.50;;
5393;SDS011;2720;52.396;10.064;2023-05-17T09:46:26;9.00;;;1.47;;
5393;SDS011;2720;52.396;10.064;2023-05-17T09:48:53;18.63;;;2.17;;
5393;SDS011;2720;52.396;10.064;2023-05-17T09:51:30;18.40;;;2.80;;
5393;SDS011;2720;52.396;10.064;2023-05-17T09:53:58;19.57;;;2.70;;
5393;SDS011;2720;52.396;10.064;2023-05-17T09:56:28;8.30;;;1.20;;
5393;SDS011;2720;52.396;10.064;2023-05-17T09:58:56;10.93;;;2.27;;
5393;SDS011;2720;52.396;10.064;2023-05-17T10:01:25;15.63;;;2.37;;
5393;SDS011;2720;52.396;10.064;2023-05-17T10:03:54;16.47;;;2.30;;
5393;SDS011;2720;52.396;10.064;2023-05-17T10:06:26;12.20;;;2.40;;
5393;SDS011;2720;52.396;10.064;2023-05-17T10:08:56;10.60;;;1.93;;
5393;SDS011;2720;52.396;10.064;2023-05-17T10:11:25;14.57;;;1.57;;
5393;SDS011;2720;52.396;10.064;2023-05-17T10:14:00;12.73;;;1.30;;
5393;SDS011;2720;52.396;10.064;2023-05-17T10:16:36;17.60;;;2.33;;
5393;SDS011;2720;52.396;10.064;2023-05-17T10:19:04;11.13;;;1.83;;
5393;SDS011;2720;52.396;10.064;2023-05-17T10:21:31;14.50;;;2.20;;
5393;SDS011;2720;52.396;10.064;2023-05-17T10:23:59;20.60;;;3.00;;
5393;SDS011;2720;52.396;10.064;2023-05-17T10:26:27;8.10;;;1.60;;
5393;SDS011;2720;52.396;10.064;2023-05-17T10:28:56;14.90;;;2.07;;
5393;SDS011;2720;52.396;10.064;2023-05-17T10:31:26;11.97;;;2.23;;
5393;SDS011;2720;52.396;10.064;2023-05-17T10:33:56;21.50;;;2.03;;
5393;SDS011;2720;52.396;10.064;2023-05-17T10:36:25;7.00;;;1.33;;
5393;SDS011;2720;52.396;10.064;2023-05-17T10:38:52;13.87;;;1.33;;
5393;SDS011;2720;52.396;10.064;2023-05-17T10:41:21;11.93;;;1.47;;
5393;SDS011;2720;52.396;10.064;2023-05-17T10:43:51;13.03;;;1.50;;
5393;SDS011;2720;52.396;10.064;2023-05-17T10:46:20;16.77;;;2.20;;
5393;SDS011;2720;52.396;10.064;2023-05-17T10:48:49;11.20;;;2.13;;
5393;SDS011;2720;52.396;10.064;2023-05-17T10:51:21;11.93;;;1.97;;
5393;SDS011;2720;52.396;10.064;2023-05-17T10:56:38;14.10;;;2.50;;
5393;SDS011;2720;52.396;10.064;2023-05-17T10:59:13;10.70;;;1.83;;
5393;SDS011;2720;52.396;10.064;2023-05-17T11:01:48;9.80;;;1.57;;
5393;SDS011;2720;52.396;10.064;2023-05-17T11:04:20;8.10;;;1.40;;
5393;SDS011;2720;52.396;10.064;2023-05-17T11:06:51;7.47;;;1.63;;
5393;SDS011;2720;52.396;10.064;2023-05-17T11:09:20;18.30;;;2.30;;
5393;SDS011;2720;52.396;10.064;2023-05-17T11:12:06;14.63;;;1.63;;
5393;SDS011;2720;52.396;10.064;2023-05-17T11:14:47;13.93;;;1.67;;
5393;SDS011;2720;52.396;10.064;2023-05-17T11:17:15;11.53;;;1.57;;
5393;SDS011;2720;52.396;10.064;2023-05-17T11:22:56;8.80;;;1.87;;
5393;SDS011;2720;52.396;10.064;2023-05-17T11:25:26;10.37;;;2.00;;
5393;SDS011;2720;52.396;10.064;2023-05-17T11:27:54;12.53;;;1.43;;
5393;SDS011;2720;52.396;10.064;2023-05-17T11:30:22;10.50;;;1.40;;
5393;SDS011;2720;52.396;10.064;2023-05-17T11:32:51;10.27;;;1.40;;
5393;SDS011;2720;52.396;10.064;2023-05-17T11:35:22;12.17;;;2.07;;
5393;SDS011;2720;52.396;10.064;2023-05-17T11:37:51;17.87;;;3.17;;
5393;SDS011;2720;52.396;10.064;2023-05-17T11:40:28;6.77;;;1.80;;
5393;SDS011;2720;52.396;10.064;2023-05-17T11:45:46;9.43;;;1.87;;
5393;SDS011;2720;52.396;10.064;2023-05-17T11:48:15;10.87;;;1.70;;
5393;SDS011;2720;52.396;10.064;2023-05-17T11:50:45;13.43;;;2.77;;
5393;SDS011;2720;52.396;10.064;2023-05-17T11:53:14;20.33;;;2.13;;
5393;SDS011;2720;52.396;10.064;2023-05-17T11:55:43;13.23;;;2.27;;
5393;SDS011;2720;52.396;10.064;2023-05-17T11:58:13;10.83;;;1.73;;
5393;SDS011;2720;52.396;10.064;2023-05-17T12:00:40;12.30;;;1.50;;
5393;SDS011;2720;52.396;10.064;2023-05-17T12:03:15;8.03;;;1.30;;
5393;SDS011;2720;52.396;10.064;2023-05-17T12:05:42;8.43;;;1.40;;
5393;SDS011;2720;52.396;10.064;2023-05-17T12:08:10;4.97;;;1.77;;
5393;SDS011;2720;52.396;10.064;2023-05-17T12:10:43;6.87;;;1.10;;
5393;SDS011;2720;52.396;10.064;2023-05-17T12:13:11;7.70;;;1.73;;
5393;SDS011;2720;52.396;10.064;2023-05-17T12:15:38;8.43;;;1.60;;
5393;SDS011;2720;52.396;10.064;2023-05-17T12:18:09;15.63;;;2.43;;
5393;SDS011;2720;52.396;10.064;2023-05-17T12:20:37;17.43;;;2.10;;
5393;SDS011;2720;52.396;10.064;2023-05-17T12:23:04;4.67;;;1.47;;
5393;SDS011;2720;52.396;10.064;2023-05-17T12:25:31;12.33;;;1.60;;
5393;SDS011;2720;52.396;10.064;2023-05-17T12:28:15;10.10;;;1.33;;
5393;SDS011;2720;52.396;10.064;2023-05-17T12:30:50;11.30;;;2.00;;
5393;SDS011;2720;52.396;10.064;2023-05-17T12:33:18;6.73;;;1.40;;
5393;SDS011;2720;52.396;10.064;2023-05-17T12:35:45;7.80;;;1.63;;
5393;SDS011;2720;52.396;10.064;2023-05-17T12:38:12;7.00;;;1.30;;
5393;SDS011;2720;52.396;10.064;2023-05-17T12:40:39;3.67;;;1.10;;
5393;SDS011;2720;52.396;10.064;2023-05-17T12:43:07;6.80;;;1.40;;
5393;SDS011;2720;52.396;10.064;2023-05-17T12:45:36;8.57;;;2.00;;
5393;SDS011;2720;52.396;10.064;2023-05-17T12:48:06;7.70;;;1.53;;
5393;SDS011;2720;52.396;10.064;2023-05-17T12:50:33;15.00;;;1.47;;
5393;SDS011;2720;52.396;10.064;2023-05-17T12:53:06;10.70;;;1.63;;
5393;SDS011;2720;52.396;10.064;2023-05-17T12:55:35;11.20;;;1.77;;
5393;SDS011;2720;52.396;10.064;2023-05-17T12:58:03;11.70;;;2.90;;
5393;SDS011;2720;52.396;10.064;2023-05-17T13:00:30;8.50;;;1.40;;
5393;SDS011;2720;52.396;10.064;2023-05-17T13:02:58;9.93;;;1.73;;
5393;SDS011;2720;52.396;10.064;2023-05-17T13:05:25;9.40;;;1.43;;
5393;SDS011;2720;52.396;10.064;2023-05-17T13:07:52;15.30;;;1.90;;
5393;SDS011;2720;52.396;10.064;2023-05-17T13:10:20;5.37;;;1.30;;
5393;SDS011;2720;52.396;10.064;2023-05-17T13:12:54;7.87;;;1.63;;
5393;SDS011;2720;52.396;10.064;2023-05-17T13:15:26;6.80;;;1.50;;
5393;SDS011;2720;52.396;10.064;2023-05-17T13:17:54;13.77;;;2.20;;
5393;SDS011;2720;52.396;10.064;2023-05-17T13:20:22;5.80;;;1.30;;
5393;SDS011;2720;52.396;10.064;2023-05-17T13:22:49;5.93;;;1.47;;
5393;SDS011;2720;52.396;10.064;2023-05-17T13:25:16;8.43;;;2.37;;
5393;SDS011;2720;52.396;10.064;2023-05-17T13:27:44;5.70;;;1.20;;
5393;SDS011;2720;52.396;10.064;2023-05-17T13:30:13;8.33;;;1.50;;
5393;SDS011;2720;52.396;10.064;2023-05-17T13:32:40;8.80;;;1.80;;
5393;SDS011;2720;52.396;10.064;2023-05-17T13:35:08;7.33;;;1.20;;
5393;SDS011;2720;52.396;10.064;2023-05-17T13:37:36;6.37;;;1.60;;
5393;SDS011;2720;52.396;10.064;2023-05-17T13:40:04;5.13;;;1.20;;
5393;SDS011;2720;52.396;10.064;2023-05-17T13:42:32;5.47;;;1.20;;
5393;SDS011;2720;52.396;10.064;2023-05-17T13:44:59;7.60;;;1.10;;
5393;SDS011;2720;52.396;10.064;2023-05-17T13:47:26;4.90;;;1.50;;
5393;SDS011;2720;52.396;10.064;2023-05-17T13:49:56;7.17;;;1.37;;
5393;SDS011;2720;52.396;10.064;2023-05-17T13:52:24;6.77;;;1.77;;
5393;SDS011;2720;52.396;10.064;2023-05-17T13:54:52;10.93;;;1.47;;
5393;SDS011;2720;52.396;10.064;2023-05-17T13:57:19;6.23;;;1.17;;
5393;SDS011;2720;52.396;10.064;2023-05-17T13:59:46;7.73;;;2.00;;
5393;SDS011;2720;52.396;10.064;2023-05-17T14:02:13;5.80;;;1.30;;
5393;SDS011;2720;52.396;10.064;2023-05-17T14:04:40;12.17;;;2.40;;
5393;SDS011;2720;52.396;10.064;2023-05-17T14:07:07;7.47;;;1.60;;
5393;SDS011;2720;52.396;10.064;2023-05-17T14:09:34;7.80;;;1.40;;
5393;SDS011;2720;52.396;10.064;2023-05-17T14:12:03;10.07;;;1.33;;
5393;SDS011;2720;52.396;10.064;2023-05-17T14:14:31;7.30;;;1.60;;
5393;SDS011;2720;52.396;10.064;2023-05-17T14:16:58;7.90;;;1.33;;
5393;SDS011;2720;52.396;10.064;2023-05-17T14:19:25;8.73;;;1.77;;
5393;SDS011;2720;52.396;10.064;2023-05-17T14:21:52;5.17;;;1.60;;
5393;SDS011;2720;52.396;10.064;2023-05-17T14:24:19;7.37;;;1.50;;
5393;SDS011;2720;52.396;10.064;2023-05-17T14:26:46;8.77;;;1.57;;
5393;SDS011;2720;52.396;10.064;2023-05-17T14:29:14;12.63;;;1.73;;
5393;SDS011;2720;52.396;10.064;2023-05-17T14:31:41;10.63;;;1.50;;
5393;SDS011;2720;52.396;10.064;2023-05-17T14:34:08;9.87;;;1.77;;
5393;SDS011;2720;52.396;10.064;2023-05-17T14:36:35;11.43;;;1.73;;
5393;SDS011;2720;52.396;10.064;2023-05-17T14:39:03;8.23;;;1.63;;
5393;SDS011;2720;52.396;10.064;2023-05-17T14:41:30;5.30;;;1.13;;
5393;SDS011;2720;52.396;10.064;2023-05-17T14:43:57;11.97;;;1.50;;
5393;SDS011;2720;52.396;10.064;2023-05-17T14:46:25;10.03;;;1.87;;
5393;SDS011;2720;52.396;10.064;2023-05-17T14:48:52;11.53;;;1.97;;
5393;SDS011;2720;52.396;10.064;2023-05-17T14:51:20;7.73;;;1.23;;
5393;SDS011;2720;52.396;10.064;2023-05-17T14:53:47;5.80;;;1.60;;
5393;SDS011;2720;52.396;10.064;2023-05-17T14:56:14;9.30;;;1.50;;
5393;SDS011;2720;52.396;10.064;2023-05-17T14:58:41;6.10;;;1.27;;
5393;SDS011;2720;52.396;10.064;2023-05-17T15:01:09;6.40;;;2.07;;
5393;SDS011;2720;52.396;10.064;2023-05-17T15:03:37;9.80;;;1.90;;
5393;SDS011;2720;52.396;10.064;2023-05-17T15:06:04;6.00;;;1.50;;
5393;SDS011;2720;52.396;10.064;2023-05-17T15:08:31;6.10;;;1.30;;